Time;durP1;ratioP1;P1;durP2;ratioP2;P2;SDS_P1;SDS_P2;PMS_P1;PMS_P2;Temp;Humidity;BMP_temperature;BMP_pressure;BME280_temperature;BME280_humidity;BME280_pressure;Samples;Min_cycle;Max_cycle;Signal;HPM_P1;HPM_P2
2022/10/16 00:01:37;;;;;;;;;;;;;;;14.07;100.00;96391.25;5096754;28;20054;-75
2022/10/16 00:04:03;;;;;;;;;;;;;;;14.06;100.00;96381.75;5095958;28;19955;-75
2022/10/16 00:06:30;;;;;;;;;;;;;;;14.04;100.00;96389.09;5097337;28;19963;-75
2022/10/16 00:08:57;;;;;;;;;;;;;;;14.01;100.00;96390.41;5096634;28;20317;-75
2022/10/16 00:11:24;;;;;;;;;;;;;;;13.99;100.00;96390.63;5096892;28;19958;-75
2022/10/16 00:13:51;;;;;;;;;;;;;;;13.96;100.00;96399.03;5096638;28;19955;-75
2022/10/16 00:16:18;;;;;;;;;;;;;;;13.94;100.00;96406.38;5096481;28;19953;-75
2022/10/16 00:18:44;;;;;;;;;;;;;;;13.93;100.00;96410.03;5095633;28;19980;-75
2022/10/16 00:21:12;;;;;;;;;;;;;;;13.91;100.00;96404.22;5096589;28;19981;-75
2022/10/16 00:23:58;;;;;;;;;;;;;;;13.89;100.00;96402.84;5100063;28;19965;-75
2022/10/16 00:26:25;;;;;;;;;;;;;;;13.85;100.00;96391.97;5096288;28;19954;-75
2022/10/16 00:28:51;;;;;;;;;;;;;;;13.82;100.00;96381.94;5096218;28;20433;-75
2022/10/16 00:31:18;;;;;;;;;;;;;;;13.79;100.00;96392.94;5096113;28;19945;-75
2022/10/16 00:33:44;;;;;;;;;;;;;;;13.78;100.00;96391.34;5096352;28;19953;-75
2022/10/16 00:36:11;;;;;;;;;;;;;;;13.75;100.00;96381.28;5096285;28;19966;-75
2022/10/16 00:38:37;;;;;;;;;;;;;;;13.73;100.00;96384.16;5096228;28;19952;-75
2022/10/16 00:41:04;;;;;;;;;;;;;;;13.72;100.00;96382.56;5096278;28;20449;-75
2022/10/16 00:43:35;;;;;;;;;;;;;;;13.70;100.00;96387.28;5095999;28;19960;-75
2022/10/16 00:46:02;;;;;;;;;;;;;;;13.69;100.00;96388.31;5096526;28;19957;-75
2022/10/16 00:48:28;;;;;;;;;;;;;;;13.69;100.00;96384.88;5095853;28;19959;-75
2022/10/16 00:50:55;;;;;;;;;;;;;;;13.68;100.00;96383.28;5096160;28;19960;-75
2022/10/16 00:53:21;;;;;;;;;;;;;;;13.67;100.00;96393.03;5095751;28;19955;-75
2022/10/16 00:55:47;;;;;;;;;;;;;;;13.66;100.00;96393.25;5095939;28;19961;-75
2022/10/16 00:58:13;;;;;;;;;;;;;;;13.65;100.00;96404.81;5095606;28;20390;-75
2022/10/16 01:00:39;;;;;;;;;;;;;;;13.62;100.00;96398.19;5095580;28;20086;-75
2022/10/16 01:03:23;;;;;;;;;;;;;;;13.60;100.00;96397.63;5096088;28;20417;-75
2022/10/16 01:05:54;;;;;;;;;;;;;;;13.59;100.00;96410.03;5096114;28;19954;-74
2022/10/16 01:08:33;;;;;;;;;;;;;;;13.59;100.00;96409.22;5094470;28;20359;-75
2022/10/16 01:11:11;;;;;;;;;;;;;;;13.58;100.00;96411.03;5095453;28;19958;-74
2022/10/16 01:13:40;;;;;;;;;;;;;;;13.57;100.00;96409.47;5095573;28;19946;-75
2022/10/16 01:16:12;;;;;;;;;;;;;;;13.55;100.00;96408.09;5095477;28;19977;-75
2022/10/16 01:18:46;;;;;;;;;;;;;;;13.52;100.00;96406.75;5094948;28;19990;-75
2022/10/16 01:21:16;;;;;;;;;;;;;;;13.52;100.00;96392.75;5095076;28;20320;-75
2022/10/16 01:24:14;;;;;;;;;;;;;;;13.51;100.00;96396.44;5095578;28;20404;-75
2022/10/16 01:26:59;;;;;;;;;;;;;;;13.50;100.00;96400.09;5094087;28;19968;-76
2022/10/16 01:29:31;;;;;;;;;;;;;;;13.50;100.00;96400.09;5095314;28;19953;-76
2022/10/16 01:32:00;;;;;;;;;;;;;;;13.49;100.00;96393.25;5094947;28;19952;-75
2022/10/16 01:34:32;;;;;;;;;;;;;;;13.49;100.00;96399.31;5095119;28;19963;-76
2022/10/16 01:37:15;;;;;;;;;;;;;;;13.50;100.00;96405.38;5095255;28;19972;-76
2022/10/16 01:39:45;;;;;;;;;;;;;;;13.50;100.00;96408.81;5094733;28;19964;-76
2022/10/16 01:42:12;;;;;;;;;;;;;;;13.52;100.00;96411.19;5094326;28;19972;-75
2022/10/16 01:44:39;;;;;;;;;;;;;;;13.53;100.00;96410.19;5094708;28;20410;-76
2022/10/16 01:47:07;;;;;;;;;;;;;;;13.52;100.00;96405.94;5095153;28;19956;-76
2022/10/16 01:49:35;;;;;;;;;;;;;;;13.53;100.00;96400.44;5080352;28;19956;-76
2022/10/16 01:52:05;;;;;;;;;;;;;;;13.52;100.00;96392.75;5094885;28;19965;-76
2022/10/16 01:54:33;;;;;;;;;;;;;;;13.53;100.00;96394.38;5094631;28;19948;-76
2022/10/16 01:56:59;;;;;;;;;;;;;;;13.53;100.00;96394.38;5094684;28;19946;-75
2022/10/16 01:59:26;;;;;;;;;;;;;;;13.53;100.00;96394.38;5094540;28;19951;-75
2022/10/16 02:01:54;;;;;;;;;;;;;;;13.55;100.00;96403.63;5094822;28;20321;-75
2022/10/16 02:04:24;;;;;;;;;;;;;;;13.55;100.00;96401.00;5094474;28;19974;-75
2022/10/16 02:06:50;;;;;;;;;;;;;;;13.56;100.00;96405.22;5094492;28;20332;-75
2022/10/16 02:09:16;;;;;;;;;;;;;;;13.57;100.00;96404.19;5094253;28;19957;-75
2022/10/16 02:11:43;;;;;;;;;;;;;;;13.58;100.00;96402.34;5094537;28;19980;-75
2022/10/16 02:14:09;;;;;;;;;;;;;;;13.58;100.00;96410.25;5094494;28;19986;-75
2022/10/16 02:16:37;;;;;;;;;;;;;;;13.59;100.00;96406.59;5094368;28;20014;-75
2022/10/16 02:19:03;;;;;;;;;;;;;;;13.59;100.00;96415.28;5093909;28;19987;-74
2022/10/16 02:21:33;;;;;;;;;;;;;;;13.59;100.00;96406.59;5094287;28;19978;-74
2022/10/16 02:24:10;;;;;;;;;;;;;;;13.59;100.00;96399.47;5094371;28;19956;-74
2022/10/16 02:26:42;;;;;;;;;;;;;;;13.57;100.00;96391.00;5094106;28;20401;-74
2022/10/16 02:29:10;;;;;;;;;;;;;;;13.56;100.00;96401.78;5093997;28;19963;-74
2022/10/16 02:31:41;;;;;;;;;;;;;;;13.55;100.00;96398.34;5093949;28;19954;-74
2022/10/16 02:34:08;;;;;;;;;;;;;;;13.56;100.00;96399.16;5092866;28;19957;-74
2022/10/16 02:36:35;;;;;;;;;;;;;;;13.55;100.00;96410.75;5093842;28;20318;-74
2022/10/16 02:39:01;;;;;;;;;;;;;;;13.54;100.00;96403.84;5093863;28;20025;-74
2022/10/16 02:41:27;;;;;;;;;;;;;;;13.54;100.00;96401.22;5093823;28;19983;-74
2022/10/16 02:43:54;;;;;;;;;;;;;;;13.51;100.00;96410.41;5093970;28;20337;-75
2022/10/16 02:46:20;;;;;;;;;;;;;;;13.49;100.00;96404.56;5093903;28;19962;-75
2022/10/16 02:48:46;;;;;;;;;;;;;;;13.50;100.00;96398.28;5093673;28;20438;-74
2022/10/16 02:51:12;;;;;;;;;;;;;;;13.50;100.00;96403.56;5094087;28;19958;-74
2022/10/16 02:53:38;;;;;;;;;;;;;;;13.52;100.00;96414.66;5092651;28;20432;-74
2022/10/16 02:56:04;;;;;;;;;;;;;;;13.51;100.00;96410.41;5093747;28;20038;-74
2022/10/16 02:58:30;;;;;;;;;;;;;;;13.52;100.00;96417.28;5093920;28;19957;-74
2022/10/16 03:00:56;;;;;;;;;;;;;;;13.52;100.00;96409.38;5093431;28;20422;-75
2022/10/16 03:03:22;;;;;;;;;;;;;;;13.53;100.00;96418.09;5093550;28;20018;-75
2022/10/16 03:05:47;;;;;;;;;;;;;;;13.52;100.00;96409.38;5093889;28;19989;-75
2022/10/16 03:08:14;;;;;;;;;;;;;;;13.53;100.00;96410.97;5093559;28;19998;-75
2022/10/16 03:10:39;;;;;;;;;;;;;;;13.53;100.00;96405.69;5093546;28;19949;-76
2022/10/16 03:13:05;;;;;;;;;;;;;;;13.53;100.00;96410.97;5093814;28;20396;-75
2022/10/16 03:15:31;;;;;;;;;;;;;;;13.53;100.00;96402.28;5093376;28;19957;-76
2022/10/16 03:17:58;;;;;;;;;;;;;;;13.53;100.00;96407.53;5094062;28;20315;-75
2022/10/16 03:20:24;;;;;;;;;;;;;;;13.52;100.00;96412.03;5093607;28;19956;-75
2022/10/16 03:22:50;;;;;;;;;;;;;;;13.53;100.00;96415.44;5093590;28;19974;-75
2022/10/16 03:25:16;;;;;;;;;;;;;;;13.52;100.00;96403.28;5093440;28;19967;-75
2022/10/16 03:27:42;;;;;;;;;;;;;;;13.51;100.00;96407.78;5093628;28;19951;-75
2022/10/16 03:30:08;;;;;;;;;;;;;;;13.49;100.00;96404.56;5093389;28;19968;-75
2022/10/16 03:32:34;;;;;;;;;;;;;;;13.49;100.00;96406.41;5093198;28;20307;-75
2022/10/16 03:35:00;;;;;;;;;;;;;;;13.46;100.00;96412.97;5093477;28;19953;-75
2022/10/16 03:37:26;;;;;;;;;;;;;;;13.45;100.00;96413.97;5093447;28;20483;-75
2022/10/16 03:39:52;;;;;;;;;;;;;;;13.43;100.00;96429.22;5092360;28;19962;-74
2022/10/16 03:42:18;;;;;;;;;;;;;;;13.41;100.00;96418.13;5093194;28;19971;-74
2022/10/16 03:44:44;;;;;;;;;;;;;;;13.41;100.00;96418.13;5091958;28;19959;-74
2022/10/16 03:47:10;;;;;;;;;;;;;;;13.42;100.00;96418.91;5093470;28;19969;-74
2022/10/16 03:49:36;;;;;;;;;;;;;;;13.39;100.00;96422.81;5093002;28;20416;-74
2022/10/16 03:52:02;;;;;;;;;;;;;;;13.38;100.00;96423.88;5093250;28;19998;-74
2022/10/16 03:54:27;;;;;;;;;;;;;;;13.36;100.00;96418.84;5093137;28;20040;-74
2022/10/16 03:56:53;;;;;;;;;;;;;;;13.35;100.00;96422.50;5093297;28;19960;-74
2022/10/16 03:59:19;;;;;;;;;;;;;;;13.34;100.00;96420.91;5093169;28;19958;-75
2022/10/16 04:01:45;;;;;;;;;;;;;;;13.35;100.00;96426.97;5092985;28;19975;-75
2022/10/16 04:04:11;;;;;;;;;;;;;;;13.32;100.00;96425.63;5094491;28;19960;-75
2022/10/16 04:06:37;;;;;;;;;;;;;;;13.29;100.00;96433.19;5096377;28;19975;-75
2022/10/16 04:09:03;;;;;;;;;;;;;;;13.27;100.00;96424.69;5096872;28;19962;-75
2022/10/16 04:11:29;;;;;;;;;;;;;;;13.29;100.00;96422.63;5096837;28;19948;-75
2022/10/16 04:13:55;;;;;;;;;;;;;;;13.31;100.00;96434.56;5096728;28;20014;-75
2022/10/16 04:16:20;;;;;;;;;;;;;;;13.33;100.00;96427.22;5096690;28;19962;-75
2022/10/16 04:18:46;;;;;;;;;;;;;;;13.35;100.00;96411.97;5096671;28;19996;-75
2022/10/16 04:21:12;;;;;;;;;;;;;;;13.37;100.00;96420.44;5095223;28;20056;-75
2022/10/16 04:23:38;;;;;;;;;;;;;;;13.40;100.00;96422.59;5096626;28;20472;-75
2022/10/16 04:26:04;;;;;;;;;;;;;;;13.43;100.00;96417.91;5096633;28;20306;-74
2022/10/16 04:28:30;;;;;;;;;;;;;;;13.43;100.00;96417.91;5096584;28;19984;-74
2022/10/16 04:30:56;;;;;;;;;;;;;;;13.44;100.00;96428.22;5096997;28;20437;-74
2022/10/16 04:33:22;;;;;;;;;;;;;;;13.44;100.00;96422.94;5096332;28;20011;-74
2022/10/16 04:35:47;;;;;;;;;;;;;;;13.45;100.00;96426.38;5096658;28;19953;-74
2022/10/16 04:38:13;;;;;;;;;;;;;;;13.45;100.00;96431.63;5096454;28;20016;-75
2022/10/16 04:40:41;;;;;;;;;;;;;;;13.44;100.00;96425.56;5096288;28;20046;-75
2022/10/16 04:43:07;;;;;;;;;;;;;;;13.46;100.00;96425.31;5096120;28;20453;-74
2022/10/16 04:45:33;;;;;;;;;;;;;;;13.47;100.00;96442.72;5096272;28;19954;-75
2022/10/16 04:47:59;;;;;;;;;;;;;;;13.46;100.00;96443.75;5096648;28;19985;-75
2022/10/16 04:50:25;;;;;;;;;;;;;;;13.47;100.00;96448.00;5096302;28;19961;-76
2022/10/16 04:52:51;;;;;;;;;;;;;;;13.46;100.00;96449.84;5095975;28;20003;-76
2022/10/16 04:55:17;;;;;;;;;;;;;;;13.47;100.00;96448.00;5096018;28;19964;-75
2022/10/16 04:57:43;;;;;;;;;;;;;;;13.47;100.00;96448.00;5095874;28;19957;-76
2022/10/16 05:00:09;;;;;;;;;;;;;;;13.47;100.00;96446.16;5095666;28;19949;-75
2022/10/16 05:02:35;;;;;;;;;;;;;;;13.47;100.00;96453.28;5096212;28;20341;-75
2022/10/16 05:05:01;;;;;;;;;;;;;;;13.46;100.00;96447.22;5095715;28;19996;-75
2022/10/16 05:07:26;;;;;;;;;;;;;;;13.46;100.00;96452.47;5096181;28;20426;-75
2022/10/16 05:09:53;;;;;;;;;;;;;;;13.46;100.00;96451.66;5095679;28;20330;-75
2022/10/16 05:12:19;;;;;;;;;;;;;;;13.44;100.00;96444.00;5095620;28;19960;-75
2022/10/16 05:14:45;;;;;;;;;;;;;;;13.44;100.00;96440.56;5094712;28;19959;-75
2022/10/16 05:17:10;;;;;;;;;;;;;;;13.41;100.00;96444.47;5094752;28;20396;-75
2022/10/16 05:19:36;;;;;;;;;;;;;;;13.38;100.00;96448.38;5095613;28;20356;-75
2022/10/16 05:22:02;;;;;;;;;;;;;;;13.38;100.00;96444.94;5095233;28;19983;-75
2022/10/16 05:24:28;;;;;;;;;;;;;;;13.37;100.00;96451.25;5095071;28;19951;-75
2022/10/16 05:26:54;;;;;;;;;;;;;;;13.36;100.00;96455.72;5094020;28;19961;-75
2022/10/16 05:29:20;;;;;;;;;;;;;;;13.34;100.00;96460.41;5095678;28;19952;-75
2022/10/16 05:31:46;;;;;;;;;;;;;;;13.34;100.00;96465.69;5095361;28;19962;-75
2022/10/16 05:34:12;;;;;;;;;;;;;;;13.33;100.00;96464.09;5095372;28;20302;-73
2022/10/16 05:36:38;;;;;;;;;;;;;;;13.31;100.00;96465.34;5095021;28;19959;-75
2022/10/16 05:39:04;;;;;;;;;;;;;;;13.29;100.00;96464.78;5095001;28;20043;-74
2022/10/16 05:41:30;;;;;;;;;;;;;;;13.25;100.00;96461.81;5093856;28;20375;-74
2022/10/16 05:43:55;;;;;;;;;;;;;;;13.22;100.00;96466.72;5095063;28;19961;-74
2022/10/16 05:46:21;;;;;;;;;;;;;;;13.19;100.00;96468.00;5094972;28;20305;-74
2022/10/16 05:48:47;;;;;;;;;;;;;;;13.17;100.00;96478.75;5094931;28;19991;-75
2022/10/16 05:51:14;;;;;;;;;;;;;;;13.19;100.00;96479.31;5095000;28;19998;-75
2022/10/16 05:53:40;;;;;;;;;;;;;;;13.22;100.00;96487.78;5094775;28;19957;-75
2022/10/16 05:56:06;;;;;;;;;;;;;;;13.24;100.00;96498.91;5094701;28;19959;-75
2022/10/16 05:58:36;;;;;;;;;;;;;;;13.28;100.00;96492.94;5094556;28;19955;-75
2022/10/16 06:01:04;;;;;;;;;;;;;;;13.31;100.00;96481.16;5094452;28;19979;-74
2022/10/16 06:03:30;;;;;;;;;;;;;;;13.33;100.00;96484.34;5094565;28;19952;-75
2022/10/16 06:05:56;;;;;;;;;;;;;;;13.35;100.00;96488.34;5094570;28;19948;-75
2022/10/16 06:08:22;;;;;;;;;;;;;;;13.37;100.00;96499.44;5094407;28;20474;-76
2022/10/16 06:10:49;;;;;;;;;;;;;;;13.39;100.00;96486.84;5094631;28;19970;-75
2022/10/16 06:13:15;;;;;;;;;;;;;;;13.40;100.00;96491.09;5095030;28;20316;-75
2022/10/16 06:15:41;;;;;;;;;;;;;;;13.42;100.00;96493.50;5094371;28;19996;-75
2022/10/16 06:18:08;;;;;;;;;;;;;;;13.47;100.00;96493.59;5094469;28;19979;-74
2022/10/16 06:20:35;;;;;;;;;;;;;;;13.60;100.00;96495.91;5093780;28;19958;-74
2022/10/16 06:23:00;;;;;;;;;;;;;;;13.65;100.00;96486.50;5092799;28;19979;-75
2022/10/16 06:25:26;;;;;;;;;;;;;;;13.67;100.00;96487.06;5094618;28;19968;-75
2022/10/16 06:27:52;;;;;;;;;;;;;;;13.68;100.00;96493.97;5094168;28;19955;-75
2022/10/16 06:30:18;;;;;;;;;;;;;;;13.70;100.00;96497.97;5094588;28;19992;-75
2022/10/16 06:32:44;;;;;;;;;;;;;;;13.75;100.00;96510.41;5094049;28;19963;-76
2022/10/16 06:35:10;;;;;;;;;;;;;;;13.80;100.00;96516.59;5093979;28;19961;-76
2022/10/16 06:37:35;;;;;;;;;;;;;;;13.93;100.00;96517.34;5094464;28;20373;-75
2022/10/16 06:40:04;;;;;;;;;;;;;;;14.22;100.00;96507.53;5094072;28;20029;-75
2022/10/16 06:42:29;;;;;;;;;;;;;;;14.41;100.00;96513.38;5094479;28;20002;-74
2022/10/16 06:44:56;;;;;;;;;;;;;;;14.39;100.00;96524.16;5093873;28;20412;-74
2022/10/16 06:47:21;;;;;;;;;;;;;;;14.34;100.00;96520.63;5094006;28;19951;-74
2022/10/16 06:49:47;;;;;;;;;;;;;;;14.31;100.00;96531.69;5094001;28;20023;-75
2022/10/16 06:52:13;;;;;;;;;;;;;;;14.27;100.00;96522.66;5093761;28;19954;-76
2022/10/16 06:54:39;;;;;;;;;;;;;;;14.24;100.00;96529.22;5094107;28;19957;-77
2022/10/16 06:57:05;;;;;;;;;;;;;;;14.22;100.00;96526.00;5093619;28;19966;-76
2022/10/16 06:59:31;;;;;;;;;;;;;;;14.22;100.00;96536.56;5094024;28;20046;-77
2022/10/16 07:01:57;;;;;;;;;;;;;;;14.24;100.00;96538.94;5093654;28;19974;-77
2022/10/16 07:04:22;;;;;;;;;;;;;;;14.25;100.00;96545.84;5093701;28;19987;-76
2022/10/16 07:06:48;;;;;;;;;;;;;;;14.28;100.00;96554.06;5093398;28;19962;-75
2022/10/16 07:09:14;;;;;;;;;;;;;;;14.32;100.00;96565.75;5093780;28;20465;-75
2022/10/16 07:11:40;;;;;;;;;;;;;;;14.34;100.00;96568.13;5093623;28;20352;-74
2022/10/16 07:14:15;;;;;;;;;;;;;;;14.37;100.00;96565.81;5093571;28;19957;-74
2022/10/16 07:16:40;;;;;;;;;;;;;;;14.38;100.00;96563.97;5093724;28;19965;-75
2022/10/16 07:19:07;;;;;;;;;;;;;;;14.41;100.00;96579.34;5093043;28;20443;-75
2022/10/16 07:21:37;;;;;;;;;;;;;;;14.41;100.00;96579.34;5093447;28;19962;-74
2022/10/16 07:24:05;;;;;;;;;;;;;;;14.41;100.00;96577.50;5093427;28;19999;-74
2022/10/16 07:26:32;;;;;;;;;;;;;;;14.41;100.00;96585.41;5093557;28;19958;-75
2022/10/16 07:28:58;;;;;;;;;;;;;;;14.44;100.00;96578.06;5093368;28;19951;-75
2022/10/16 07:31:24;;;;;;;;;;;;;;;14.46;100.00;96584.69;5093747;28;19974;-75
2022/10/16 07:33:51;;;;;;;;;;;;;;;14.48;100.00;96590.53;5093382;28;19953;-75
2022/10/16 07:36:18;;;;;;;;;;;;;;;14.51;100.00;96590.06;5093807;28;19985;-75
2022/10/16 07:38:44;;;;;;;;;;;;;;;14.54;100.00;96591.44;5094190;28;19951;-75
2022/10/16 07:41:14;;;;;;;;;;;;;;;14.61;100.00;96594.72;5097585;28;19956;-75
2022/10/16 07:43:45;;;;;;;;;;;;;;;14.67;100.00;96592.97;5096371;28;19970;-75
2022/10/16 07:46:10;;;;;;;;;;;;;;;14.72;100.00;96603.59;5085931;28;19954;-75
2022/10/16 07:48:36;;;;;;;;;;;;;;;14.74;100.00;96604.16;5095906;28;19963;-74
2022/10/16 07:51:03;;;;;;;;;;;;;;;14.78;100.00;96613.22;5097088;28;19961;-75
2022/10/16 07:53:29;;;;;;;;;;;;;;;14.79;100.00;96604.25;5097023;28;19963;-75
2022/10/16 07:55:59;;;;;;;;;;;;;;;14.81;100.00;96618.03;5096918;28;19967;-75
2022/10/16 07:58:26;;;;;;;;;;;;;;;14.83;100.00;96618.59;5097241;28;19975;-75
2022/10/16 08:00:51;;;;;;;;;;;;;;;14.85;100.00;96626.28;5096837;28;20043;-75
2022/10/16 08:03:17;;;;;;;;;;;;;;;14.88;100.00;96623.94;5096834;28;19979;-75
2022/10/16 08:05:43;;;;;;;;;;;;;;;14.92;100.00;96624.25;5097080;28;20443;-75
2022/10/16 08:08:16;;;;;;;;;;;;;;;14.99;100.00;96619.59;5097117;28;20370;-75
2022/10/16 08:10:42;;;;;;;;;;;;;;;15.09;100.00;96619.75;5096783;28;19961;-75
2022/10/16 08:13:07;;;;;;;;;;;;;;;15.19;100.00;96614.63;5096677;28;19976;-75
2022/10/16 08:15:33;;;;;;;;;;;;;;;15.31;100.00;96622.44;5096805;28;20431;-75
2022/10/16 08:18:01;;;;;;;;;;;;;;;15.38;100.00;96615.13;5096314;28;19952;-76
2022/10/16 08:20:27;;;;;;;;;;;;;;;15.45;100.00;96614.97;5096983;28;19958;-75
2022/10/16 08:22:54;;;;;;;;;;;;;;;15.50;100.00;96622.19;5097029;28;19981;-75
2022/10/16 08:25:20;;;;;;;;;;;;;;;15.52;100.00;96622.72;5096590;28;20321;-75
2022/10/16 08:27:46;;;;;;;;;;;;;;;15.54;100.00;96626.72;5096712;28;19958;-75
2022/10/16 08:30:12;;;;;;;;;;;;;;;15.55;100.00;96630.94;5096373;28;19951;-75
2022/10/16 08:32:38;;;;;;;;;;;;;;;15.54;100.00;96632.00;5096452;28;19978;-76
2022/10/16 08:35:04;;;;;;;;;;;;;;;15.57;100.00;96630.72;5096538;28;20037;-75
2022/10/16 08:37:30;;;;;;;;;;;;;;;15.57;100.00;96633.34;5095404;28;19968;-76
2022/10/16 08:39:56;;;;;;;;;;;;;;;15.58;100.00;96634.94;5096105;28;19960;-75
2022/10/16 08:42:28;;;;;;;;;;;;;;;15.58;100.00;96645.53;5096507;28;20012;-75
2022/10/16 08:45:07;;;;;;;;;;;;;;;15.57;100.00;96651.88;5096483;28;19977;-75
2022/10/16 08:48:12;;;;;;;;;;;;;;;15.61;100.00;96652.97;5096317;28;20284;-75
2022/10/16 08:50:39;;;;;;;;;;;;;;;15.62;100.00;96655.38;5033368;28;19970;-75
2022/10/16 08:53:06;;;;;;;;;;;;;;;15.66;100.00;96657.53;5033598;28;20330;-75
2022/10/16 08:55:38;;;;;;;;;;;;;;;15.70;100.00;96661.28;5063845;28;19974;-75
2022/10/16 08:58:14;;;;;;;;;;;;;;;15.74;100.00;96654.50;5096513;28;19960;-75
2022/10/16 09:00:41;;;;;;;;;;;;;;;15.82;100.00;96656.72;5096055;28;19953;-75
2022/10/16 09:03:22;;;;;;;;;;;;;;;15.88;100.00;96661.00;5095820;28;19981;-75
2022/10/16 09:06:06;;;;;;;;;;;;;;;15.95;100.00;96672.19;5082235;28;19972;-75
2022/10/16 09:08:38;;;;;;;;;;;;;;;16.02;100.00;96667.53;5095601;28;20319;-75
2022/10/16 09:11:22;;;;;;;;;;;;;;;16.15;100.00;96668.22;5095592;28;19956;-76
2022/10/16 09:14:00;;;;;;;;;;;;;;;16.28;100.00;96681.03;5095532;28;19950;-75
2022/10/16 09:16:34;;;;;;;;;;;;;;;16.55;100.00;96677.63;5096182;28;19946;-75
2022/10/16 09:19:05;;;;;;;;;;;;;;;16.76;100.00;96671.47;5095072;28;19990;-75
2022/10/16 09:21:33;;;;;;;;;;;;;;;16.93;100.00;96663.41;5095760;28;19959;-75
2022/10/16 09:24:15;;;;;;;;;;;;;;;17.06;100.00;96659.53;5095616;28;19985;-75
2022/10/16 09:26:42;;;;;;;;;;;;;;;17.15;98.70;96652.69;5095312;28;19960;-75
2022/10/16 09:29:11;;;;;;;;;;;;;;;17.25;100.00;96662.59;5095602;28;20443;-76
2022/10/16 09:31:37;;;;;;;;;;;;;;;17.30;99.56;96673.22;5095662;28;19955;-75
2022/10/16 09:34:06;;;;;;;;;;;;;;;17.34;96.76;96657.59;5095297;28;19968;-76
2022/10/16 09:36:42;;;;;;;;;;;;;;;17.36;96.46;96653.63;5095254;28;20337;-75
2022/10/16 09:39:10;;;;;;;;;;;;;;;17.47;96.74;96666.97;5095304;28;19963;-75
2022/10/16 09:41:37;;;;;;;;;;;;;;;17.57;93.35;96646.59;5094948;28;19949;-76
2022/10/16 09:44:04;;;;;;;;;;;;;;;17.76;95.32;96654.13;5094868;28;19968;-75
2022/10/16 09:46:32;;;;;;;;;;;;;;;17.80;94.06;96653.34;5094169;28;19953;-75
2022/10/16 09:49:03;;;;;;;;;;;;;;;17.79;93.61;96659.72;5095341;28;19965;-76
2022/10/16 09:51:31;;;;;;;;;;;;;;;17.81;92.37;96660.25;5094760;28;19960;-76
2022/10/16 09:54:01;;;;;;;;;;;;;;;17.88;91.08;96648.63;5094851;28;19947;-76
2022/10/16 09:56:35;;;;;;;;;;;;;;;17.99;94.35;96680.25;5094947;28;19947;-75
2022/10/16 09:59:23;;;;;;;;;;;;;;;18.12;91.01;96651.63;5094665;28;19950;-75
2022/10/16 10:01:50;;;;;;;;;;;;;;;18.28;92.33;96682.47;5094236;28;19962;-76
2022/10/16 10:04:20;;;;;;;;;;;;;;;18.33;90.92;96669.22;5094693;28;19963;-75
2022/10/16 10:06:47;;;;;;;;;;;;;;;18.39;93.46;96678.78;5093961;28;19957;-75
2022/10/16 10:09:13;;;;;;;;;;;;;;;18.43;90.45;96665.78;5094638;28;19955;-75
2022/10/16 10:11:40;;;;;;;;;;;;;;;18.48;93.39;96683.56;5094333;28;19954;-75
2022/10/16 10:14:22;;;;;;;;;;;;;;;18.65;90.99;96666.34;5093631;28;20409;-76
2022/10/16 10:16:48;;;;;;;;;;;;;;;18.91;92.09;96684.22;5094490;28;20316;-76
2022/10/16 10:19:15;;;;;;;;;;;;;;;19.05;90.81;96662.16;5094235;28;19987;-76
2022/10/16 10:21:42;;;;;;;;;;;;;;;19.24;87.74;96653.63;5094520;28;19964;-76
2022/10/16 10:24:15;;;;;;;;;;;;;;;19.46;88.75;96664.78;5094155;28;19982;-75
2022/10/16 10:26:50;;;;;;;;;;;;;;;19.71;86.82;96649.81;5094265;28;19964;-76
2022/10/16 10:29:19;;;;;;;;;;;;;;;19.97;88.19;96653.19;5094757;28;19956;-75
2022/10/16 10:31:49;;;;;;;;;;;;;;;20.15;81.18;96611.81;5094391;28;19970;-76
2022/10/16 10:34:24;;;;;;;;;;;;;;;20.24;83.18;96633.34;5094550;28;19964;-75
2022/10/16 10:37:02;;;;;;;;;;;;;;;20.26;80.33;96616.03;5094253;28;19953;-75
2022/10/16 10:39:40;;;;;;;;;;;;;;;20.35;81.50;96624.25;5094469;28;19956;-76
2022/10/16 10:42:16;;;;;;;;;;;;;;;20.44;76.45;96593.28;5080616;28;19963;-76
2022/10/16 10:45:11;;;;;;;;;;;;;;;20.60;79.78;96614.50;5094386;28;19952;-77
2022/10/16 10:47:37;;;;;;;;;;;;;;;20.78;78.05;96619.16;5093866;28;19978;-75
2022/10/16 10:50:17;;;;;;;;;;;;;;;20.97;77.11;96610.47;5093764;28;20013;-76
2022/10/16 10:52:57;;;;;;;;;;;;;;;21.00;73.03;96586.72;5094154;28;19961;-76
2022/10/16 10:55:27;;;;;;;;;;;;;;;20.96;76.62;96619.56;5093735;28;20013;-77
2022/10/16 10:58:04;;;;;;;;;;;;;;;20.85;76.52;96611.66;5093120;28;20317;-77
2022/10/16 11:00:33;;;;;;;;;;;;;;;20.78;76.98;96607.72;5093975;28;19950;-77
2022/10/16 11:03:05;;;;;;;;;;;;;;;20.75;76.97;96595.75;5093682;28;19969;-76
2022/10/16 11:05:34;;;;;;;;;;;;;;;20.62;74.48;96575.03;5093557;28;20405;-75
2022/10/16 11:08:03;;;;;;;;;;;;;;;20.57;75.06;96589.19;5093901;28;19962;-75
2022/10/16 11:10:33;;;;;;;;;;;;;;;20.54;74.88;96583.63;5092101;28;19960;-75
2022/10/16 11:13:04;;;;;;;;;;;;;;;20.44;77.23;96611.91;5092544;28;19959;-76
2022/10/16 11:15:36;;;;;;;;;;;;;;;20.52;77.94;96615.09;5097804;28;19960;-76
2022/10/16 11:18:02;;;;;;;;;;;;;;;20.74;76.08;96596.78;5097547;28;19964;-76
2022/10/16 11:20:42;;;;;;;;;;;;;;;21.05;77.49;96615.22;5097924;28;19992;-76
2022/10/16 11:23:15;;;;;;;;;;;;;;;21.41;74.28;96569.50;5097845;28;19986;-76
2022/10/16 11:25:42;;;;;;;;;;;;;;;21.66;76.08;96592.44;5096468;28;19961;-76
2022/10/16 11:28:11;;;;;;;;;;;;;;;21.60;69.95;96546.34;5097665;28;19959;-76
2022/10/16 11:30:43;;;;;;;;;;;;;;;21.57;75.65;96586.94;5096749;28;19971;-76
2022/10/16 11:33:12;;;;;;;;;;;;;;;21.62;74.62;96586.09;5097420;28;20335;-76
2022/10/16 11:35:56;;;;;;;;;;;;;;;21.74;75.50;96591.81;5097634;28;19949;-76
2022/10/16 11:38:37;;;;;;;;;;;;;;;21.88;74.24;96586.56;5087669;28;19958;-76
2022/10/16 11:41:18;;;;;;;;;;;;;;;21.91;72.83;96561.19;5088986;28;19958;-76
2022/10/16 11:44:03;;;;;;;;;;;;;;;21.91;72.29;96564.63;5097378;28;20449;-76
2022/10/16 11:46:30;;;;;;;;;;;;;;;21.97;73.91;96573.38;5096220;28;19951;-76
2022/10/16 11:48:59;;;;;;;;;;;;;;;22.07;75.85;96584.72;5097738;28;19957;-76
2022/10/16 11:52:00;;;;;;;;;;;;;;;22.14;70.39;96536.28;5081514;28;19963;-76
2022/10/16 11:54:39;;;;;;;;;;;;;;;22.26;71.18;96546.56;5035093;28;19981;-76
2022/10/16 11:57:15;;;;;;;;;;;;;;;22.44;69.37;96526.22;5089745;28;19954;-77
2022/10/16 11:59:50;;;;;;;;;;;;;;;22.60;64.87;96492.03;5083618;28;20414;-76
2022/10/16 12:02:40;;;;;;;;;;;;;;;22.63;61.62;96464.69;5096971;28;19954;-76
2022/10/16 12:05:18;;;;;;;;;;;;;;;22.58;62.96;96508.34;5074448;28;19951;-76
2022/10/16 12:07:51;;;;;;;;;;;;;;;22.55;63.23;96513.47;5097179;28;19962;-76
2022/10/16 12:10:19;;;;;;;;;;;;;;;22.52;64.25;96538.94;5096894;28;19948;-76
2022/10/16 12:12:46;;;;;;;;;;;;;;;22.43;61.64;96521.97;5096949;28;19964;-76
2022/10/16 12:15:18;;;;;;;;;;;;;;;22.38;64.12;96548.75;5097041;28;19967;-76
2022/10/16 12:17:44;;;;;;;;;;;;;;;22.33;61.82;96517.59;5096733;28;20316;-76
2022/10/16 12:20:13;;;;;;;;;;;;;;;22.30;63.06;96536.88;5096041;28;19965;-76
2022/10/16 12:22:59;;;;;;;;;;;;;;;22.25;63.55;96545.75;5096514;28;19989;-76
2022/10/16 12:25:28;;;;;;;;;;;;;;;22.19;64.27;96548.75;5096263;28;19961;-76
2022/10/16 12:27:58;;;;;;;;;;;;;;;22.15;63.51;96545.06;5096346;28;20411;-76
2022/10/16 12:30:25;;;;;;;;;;;;;;;22.21;65.43;96557.28;5097104;28;19953;-76
2022/10/16 12:33:00;;;;;;;;;;;;;;;22.32;64.75;96552.59;5096569;28;19957;-76
2022/10/16 12:35:31;;;;;;;;;;;;;;;22.39;63.95;96540.47;5096418;28;19957;-76
2022/10/16 12:38:05;;;;;;;;;;;;;;;22.46;62.23;96532.84;5096292;28;19964;-76
2022/10/16 12:40:33;;;;;;;;;;;;;;;22.55;65.19;96558.91;5096573;28;20450;-80
2022/10/16 12:42:59;;;;;;;;;;;;;;;22.66;69.29;96568.38;5095964;28;19972;-80
2022/10/16 12:45:32;;;;;;;;;;;;;;;22.77;67.60;96547.63;5096063;28;19964;-76
2022/10/16 12:47:59;;;;;;;;;;;;;;;22.86;65.79;96543.94;5095368;28;20320;-76
2022/10/16 12:50:27;;;;;;;;;;;;;;;22.96;67.12;96559.03;5096115;28;19960;-76